sensor_id;sensor_type;location;lat;lon;timestamp;temperature;humidity
6627;DHT22;3349;49.830;8.748;2022-11-20T00:00:40;2.50;99.90
6627;DHT22;3349;49.830;8.748;2022-11-20T00:03:07;2.50;99.90
6627;DHT22;3349;49.830;8.748;2022-11-20T00:05:35;2.50;99.90
6627;DHT22;3349;49.830;8.748;2022-11-20T00:08:02;2.60;99.90
6627;DHT22;3349;49.830;8.748;2022-11-20T00:10:28;2.60;99.90
6627;DHT22;3349;49.830;8.748;2022-11-20T00:12:55;2.50;99.90
6627;DHT22;3349;49.830;8.748;2022-11-20T00:15:23;2.50;99.90
6627;DHT22;3349;49.830;8.748;2022-11-20T00:17:50;2.50;99.90
6627;DHT22;3349;49.830;8.748;2022-11-20T00:20:17;2.40;99.90
6627;DHT22;3349;49.830;8.748;2022-11-20T00:22:45;2.40;99.90
6627;DHT22;3349;49.830;8.748;2022-11-20T00:25:12;2.50;99.90
6627;DHT22;3349;49.830;8.748;2022-11-20T00:27:39;2.40;99.90
6627;DHT22;3349;49.830;8.748;2022-11-20T00:30:07;2.40;99.90
6627;DHT22;3349;49.830;8.748;2022-11-20T00:32:34;2.50;99.90
6627;DHT22;3349;49.830;8.748;2022-11-20T00:35:01;2.50;99.90
6627;DHT22;3349;49.830;8.748;2022-11-20T00:37:28;2.50;99.90
6627;DHT22;3349;49.830;8.748;2022-11-20T00:39:56;2.50;99.90
6627;DHT22;3349;49.830;8.748;2022-11-20T00:42:23;2.50;99.90
6627;DHT22;3349;49.830;8.748;2022-11-20T00:44:49;2.50;99.90
6627;DHT22;3349;49.830;8.748;2022-11-20T00:47:16;2.50;99.90
6627;DHT22;3349;49.830;8.748;2022-11-20T00:49:43;2.40;99.90
6627;DHT22;3349;49.830;8.748;2022-11-20T00:52:10;2.40;99.90
6627;DHT22;3349;49.830;8.748;2022-11-20T00:54:36;2.40;99.90
6627;DHT22;3349;49.830;8.748;2022-11-20T00:57:05;2.40;99.90
6627;DHT22;3349;49.830;8.748;2022-11-20T00:59:31;2.40;99.90
6627;DHT22;3349;49.830;8.748;2022-11-20T01:01:58;2.40;99.90
6627;DHT22;3349;49.830;8.748;2022-11-20T01:04:25;2.40;99.90
6627;DHT22;3349;49.830;8.748;2022-11-20T01:06:52;2.40;99.90
6627;DHT22;3349;49.830;8.748;2022-11-20T01:09:18;2.40;99.90
6627;DHT22;3349;49.830;8.748;2022-11-20T01:11:45;2.40;99.90
6627;DHT22;3349;49.830;8.748;2022-11-20T01:14:15;2.40;99.90
6627;DHT22;3349;49.830;8.748;2022-11-20T01:16:44;2.50;99.90
6627;DHT22;3349;49.830;8.748;2022-11-20T01:19:14;2.50;99.90
6627;DHT22;3349;49.830;8.748;2022-11-20T01:21:43;2.50;99.90
6627;DHT22;3349;49.830;8.748;2022-11-20T01:24:12;2.50;99.90
6627;DHT22;3349;49.830;8.748;2022-11-20T01:26:41;2.50;99.90
6627;DHT22;3349;49.830;8.748;2022-11-20T01:29:12;2.50;99.90
6627;DHT22;3349;49.830;8.748;2022-11-20T01:31:41;2.50;99.90
6627;DHT22;3349;49.830;8.748;2022-11-20T01:34:11;2.50;99.90
6627;DHT22;3349;49.830;8.748;2022-11-20T01:36:38;2.50;99.90
6627;DHT22;3349;49.830;8.748;2022-11-20T01:39:07;2.60;99.90
6627;DHT22;3349;49.830;8.748;2022-11-20T01:41:36;2.60;99.90
6627;DHT22;3349;49.830;8.748;2022-11-20T01:44:48;2.60;99.90
6627;DHT22;3349;49.830;8.748;2022-11-20T01:47:21;2.60;99.90
6627;DHT22;3349;49.830;8.748;2022-11-20T01:49:52;2.60;99.90
6627;DHT22;3349;49.830;8.748;2022-11-20T01:52:21;2.60;99.90
6627;DHT22;3349;49.830;8.748;2022-11-20T01:54:52;2.70;99.90
6627;DHT22;3349;49.830;8.748;2022-11-20T01:57:21;2.80;99.90
6627;DHT22;3349;49.830;8.748;2022-11-20T01:59:55;2.80;99.90
6627;DHT22;3349;49.830;8.748;2022-11-20T02:02:25;2.70;99.90
6627;DHT22;3349;49.830;8.748;2022-11-20T02:04:54;2.70;99.90
6627;DHT22;3349;49.830;8.748;2022-11-20T02:07:23;2.70;99.90
6627;DHT22;3349;49.830;8.748;2022-11-20T02:09:51;2.70;99.90
6627;DHT22;3349;49.830;8.748;2022-11-20T02:12:18;2.80;99.90
6627;DHT22;3349;49.830;8.748;2022-11-20T02:14:58;2.90;99.90
6627;DHT22;3349;49.830;8.748;2022-11-20T02:17:27;2.90;99.90
6627;DHT22;3349;49.830;8.748;2022-11-20T02:19:54;3.00;99.90
6627;DHT22;3349;49.830;8.748;2022-11-20T02:22:24;3.00;99.90
6627;DHT22;3349;49.830;8.748;2022-11-20T02:24:54;3.00;99.90
6627;DHT22;3349;49.830;8.748;2022-11-20T02:27:21;3.00;99.90
6627;DHT22;3349;49.830;8.748;2022-11-20T02:29:51;3.10;99.90
6627;DHT22;3349;49.830;8.748;2022-11-20T02:32:19;3.00;99.90
6627;DHT22;3349;49.830;8.748;2022-11-20T02:34:46;3.10;99.90
6627;DHT22;3349;49.830;8.748;2022-11-20T02:37:14;3.10;99.90
6627;DHT22;3349;49.830;8.748;2022-11-20T02:39:41;3.10;99.90
6627;DHT22;3349;49.830;8.748;2022-11-20T02:42:11;3.10;99.90
6627;DHT22;3349;49.830;8.748;2022-11-20T02:44:37;3.10;99.90
6627;DHT22;3349;49.830;8.748;2022-11-20T02:47:05;3.20;99.90
6627;DHT22;3349;49.830;8.748;2022-11-20T02:49:32;3.20;99.90
6627;DHT22;3349;49.830;8.748;2022-11-20T02:51:59;3.30;99.90
6627;DHT22;3349;49.830;8.748;2022-11-20T02:54:25;3.20;99.90
6627;DHT22;3349;49.830;8.748;2022-11-20T02:56:52;3.30;99.90
6627;DHT22;3349;49.830;8.748;2022-11-20T02:59:20;3.30;99.90
6627;DHT22;3349;49.830;8.748;2022-11-20T03:01:47;3.30;99.90
6627;DHT22;3349;49.830;8.748;2022-11-20T03:04:14;3.30;99.90
6627;DHT22;3349;49.830;8.748;2022-11-20T03:06:41;3.30;99.90
6627;DHT22;3349;49.830;8.748;2022-11-20T03:09:08;3.30;99.90
6627;DHT22;3349;49.830;8.748;2022-11-20T03:11:34;3.40;99.90
6627;DHT22;3349;49.830;8.748;2022-11-20T03:14:02;3.40;99.90
6627;DHT22;3349;49.830;8.748;2022-11-20T03:16:31;3.40;99.90
6627;DHT22;3349;49.830;8.748;2022-11-20T03:18:58;3.40;99.90
6627;DHT22;3349;49.830;8.748;2022-11-20T03:21:25;3.40;99.90
6627;DHT22;3349;49.830;8.748;2022-11-20T03:23:53;3.40;99.90
6627;DHT22;3349;49.830;8.748;2022-11-20T03:26:22;3.30;99.90
6627;DHT22;3349;49.830;8.748;2022-11-20T03:28:50;3.30;99.90
6627;DHT22;3349;49.830;8.748;2022-11-20T03:31:18;3.30;99.90
6627;DHT22;3349;49.830;8.748;2022-11-20T03:33:47;3.30;99.90
6627;DHT22;3349;49.830;8.748;2022-11-20T03:36:16;3.30;99.90
6627;DHT22;3349;49.830;8.748;2022-11-20T03:38:44;3.30;99.90
6627;DHT22;3349;49.830;8.748;2022-11-20T03:41:12;3.30;99.90
6627;DHT22;3349;49.830;8.748;2022-11-20T03:43:39;3.30;99.90
6627;DHT22;3349;49.830;8.748;2022-11-20T03:46:06;3.30;99.90
6627;DHT22;3349;49.830;8.748;2022-11-20T03:48:33;3.30;99.90
6627;DHT22;3349;49.830;8.748;2022-11-20T03:51:09;3.30;99.90
6627;DHT22;3349;49.830;8.748;2022-11-20T03:53:36;3.20;99.90
6627;DHT22;3349;49.830;8.748;2022-11-20T03:56:03;3.30;99.90
6627;DHT22;3349;49.830;8.748;2022-11-20T03:58:30;3.30;99.90
6627;DHT22;3349;49.830;8.748;2022-11-20T04:00:57;3.30;99.90
6627;DHT22;3349;49.830;8.748;2022-11-20T04:03:23;3.30;99.90
6627;DHT22;3349;49.830;8.748;2022-11-20T04:05:50;3.30;99.90
6627;DHT22;3349;49.830;8.748;2022-11-20T04:08:18;3.30;99.90
6627;DHT22;3349;49.830;8.748;2022-11-20T04:10:45;3.30;99.90
6627;DHT22;3349;49.830;8.748;2022-11-20T04:13:12;3.30;99.90
6627;DHT22;3349;49.830;8.748;2022-11-20T04:15:38;3.30;99.90
6627;DHT22;3349;49.830;8.748;2022-11-20T04:18:05;3.30;99.90
6627;DHT22;3349;49.830;8.748;2022-11-20T04:20:32;3.30;99.90
6627;DHT22;3349;49.830;8.748;2022-11-20T04:22:58;3.30;99.90
6627;DHT22;3349;49.830;8.748;2022-11-20T04:25:26;3.30;99.90
6627;DHT22;3349;49.830;8.748;2022-11-20T04:27:53;3.30;99.90
6627;DHT22;3349;49.830;8.748;2022-11-20T04:30:20;3.30;99.90
6627;DHT22;3349;49.830;8.748;2022-11-20T04:32:46;3.40;99.90
6627;DHT22;3349;49.830;8.748;2022-11-20T04:35:13;3.40;99.90
6627;DHT22;3349;49.830;8.748;2022-11-20T04:37:40;3.30;99.90
6627;DHT22;3349;49.830;8.748;2022-11-20T04:40:07;3.30;99.90
6627;DHT22;3349;49.830;8.748;2022-11-20T04:42:35;3.40;99.90
6627;DHT22;3349;49.830;8.748;2022-11-20T04:45:02;3.40;99.90
6627;DHT22;3349;49.830;8.748;2022-11-20T04:47:29;3.40;99.90
6627;DHT22;3349;49.830;8.748;2022-11-20T04:49:55;3.40;99.90
6627;DHT22;3349;49.830;8.748;2022-11-20T04:52:22;3.30;99.90
6627;DHT22;3349;49.830;8.748;2022-11-20T04:54:49;3.40;99.90
6627;DHT22;3349;49.830;8.748;2022-11-20T04:57:18;3.30;99.90
6627;DHT22;3349;49.830;8.748;2022-11-20T04:59:46;3.40;99.90
6627;DHT22;3349;49.830;8.748;2022-11-20T05:02:13;3.30;99.90
6627;DHT22;3349;49.830;8.748;2022-11-20T05:04:40;3.30;99.90
6627;DHT22;3349;49.830;8.748;2022-11-20T05:07:06;3.30;99.90
6627;DHT22;3349;49.830;8.748;2022-11-20T05:09:33;3.30;99.90
6627;DHT22;3349;49.830;8.748;2022-11-20T05:12:00;3.40;99.90
6627;DHT22;3349;49.830;8.748;2022-11-20T05:14:27;3.40;99.90
6627;DHT22;3349;49.830;8.748;2022-11-20T05:16:55;3.40;99.90
6627;DHT22;3349;49.830;8.748;2022-11-20T05:19:21;3.40;99.90
6627;DHT22;3349;49.830;8.748;2022-11-20T05:21:48;3.40;99.90
6627;DHT22;3349;49.830;8.748;2022-11-20T05:24:15;3.40;99.90
6627;DHT22;3349;49.830;8.748;2022-11-20T05:26:41;3.40;99.90
6627;DHT22;3349;49.830;8.748;2022-11-20T05:29:10;3.40;99.90
6627;DHT22;3349;49.830;8.748;2022-11-20T05:31:38;3.50;99.90
6627;DHT22;3349;49.830;8.748;2022-11-20T05:34:07;3.50;99.90
6627;DHT22;3349;49.830;8.748;2022-11-20T05:36:34;3.50;99.90
6627;DHT22;3349;49.830;8.748;2022-11-20T05:39:01;3.40;99.90
6627;DHT22;3349;49.830;8.748;2022-11-20T05:41:28;3.40;99.90
6627;DHT22;3349;49.830;8.748;2022-11-20T05:43:56;3.40;99.90
6627;DHT22;3349;49.830;8.748;2022-11-20T05:46:23;3.50;99.90
6627;DHT22;3349;49.830;8.748;2022-11-20T05:48:49;3.50;99.90
6627;DHT22;3349;49.830;8.748;2022-11-20T05:51:18;3.50;99.90
6627;DHT22;3349;49.830;8.748;2022-11-20T05:53:45;3.40;99.90
6627;DHT22;3349;49.830;8.748;2022-11-20T05:56:14;3.40;99.90
6627;DHT22;3349;49.830;8.748;2022-11-20T05:58:42;3.40;99.90
6627;DHT22;3349;49.830;8.748;2022-11-20T06:01:10;3.40;99.90
6627;DHT22;3349;49.830;8.748;2022-11-20T06:03:38;3.50;99.90
6627;DHT22;3349;49.830;8.748;2022-11-20T06:06:06;3.40;99.90
6627;DHT22;3349;49.830;8.748;2022-11-20T06:08:34;3.40;99.90
6627;DHT22;3349;49.830;8.748;2022-11-20T06:11:04;3.40;99.90
6627;DHT22;3349;49.830;8.748;2022-11-20T06:13:30;3.40;99.90
6627;DHT22;3349;49.830;8.748;2022-11-20T06:15:57;3.40;99.90
6627;DHT22;3349;49.830;8.748;2022-11-20T06:18:25;3.50;99.90
6627;DHT22;3349;49.830;8.748;2022-11-20T06:20:59;3.50;99.90
6627;DHT22;3349;49.830;8.748;2022-11-20T06:23:28;3.50;99.90
6627;DHT22;3349;49.830;8.748;2022-11-20T06:25:57;3.40;99.90
6627;DHT22;3349;49.830;8.748;2022-11-20T06:28:23;3.40;99.90
6627;DHT22;3349;49.830;8.748;2022-11-20T06:30:50;3.50;99.90
6627;DHT22;3349;49.830;8.748;2022-11-20T06:33:17;3.50;99.90
6627;DHT22;3349;49.830;8.748;2022-11-20T06:35:43;3.50;99.90
6627;DHT22;3349;49.830;8.748;2022-11-20T06:38:10;3.50;99.90
6627;DHT22;3349;49.830;8.748;2022-11-20T06:40:39;3.50;99.90
6627;DHT22;3349;49.830;8.748;2022-11-20T06:43:08;3.50;99.90
6627;DHT22;3349;49.830;8.748;2022-11-20T06:45:35;3.50;99.90
6627;DHT22;3349;49.830;8.748;2022-11-20T06:48:02;3.50;99.90
6627;DHT22;3349;49.830;8.748;2022-11-20T06:50:29;3.50;99.90
6627;DHT22;3349;49.830;8.748;2022-11-20T06:52:56;3.50;99.90
6627;DHT22;3349;49.830;8.748;2022-11-20T06:55:22;3.50;99.90
6627;DHT22;3349;49.830;8.748;2022-11-20T06:57:50;3.50;99.90
6627;DHT22;3349;49.830;8.748;2022-11-20T07:00:19;3.50;99.90
6627;DHT22;3349;49.830;8.748;2022-11-20T07:02:45;3.50;99.90
6627;DHT22;3349;49.830;8.748;2022-11-20T07:05:12;3.50;99.90
6627;DHT22;3349;49.830;8.748;2022-11-20T07:07:39;3.50;99.90
6627;DHT22;3349;49.830;8.748;2022-11-20T07:10:06;3.50;99.90
6627;DHT22;3349;49.830;8.748;2022-11-20T07:12:33;3.50;99.90
6627;DHT22;3349;49.830;8.748;2022-11-20T07:15:00;3.50;99.90
6627;DHT22;3349;49.830;8.748;2022-11-20T07:17:28;3.50;99.90
6627;DHT22;3349;49.830;8.748;2022-11-20T07:19:55;3.50;99.90
6627;DHT22;3349;49.830;8.748;2022-11-20T07:22:22;3.50;99.90
6627;DHT22;3349;49.830;8.748;2022-11-20T07:24:48;3.50;99.90
6627;DHT22;3349;49.830;8.748;2022-11-20T07:27:15;3.50;99.90
6627;DHT22;3349;49.830;8.748;2022-11-20T07:29:42;3.50;99.90
6627;DHT22;3349;49.830;8.748;2022-11-20T07:32:09;3.50;99.90
6627;DHT22;3349;49.830;8.748;2022-11-20T07:34:37;3.60;99.90
6627;DHT22;3349;49.830;8.748;2022-11-20T07:37:04;3.60;99.90
6627;DHT22;3349;49.830;8.748;2022-11-20T07:39:30;3.60;99.90
6627;DHT22;3349;49.830;8.748;2022-11-20T07:41:57;3.60;99.90
6627;DHT22;3349;49.830;8.748;2022-11-20T07:44:24;3.70;99.90
6627;DHT22;3349;49.830;8.748;2022-11-20T07:46:51;3.70;99.90
6627;DHT22;3349;49.830;8.748;2022-11-20T07:49:17;3.70;99.90
6627;DHT22;3349;49.830;8.748;2022-11-20T07:51:45;3.70;99.90
6627;DHT22;3349;49.830;8.748;2022-11-20T07:54:12;3.60;99.90
6627;DHT22;3349;49.830;8.748;2022-11-20T07:56:39;3.60;99.90
6627;DHT22;3349;49.830;8.748;2022-11-20T07:59:05;3.70;99.90
6627;DHT22;3349;49.830;8.748;2022-11-20T08:01:32;3.70;99.90
6627;DHT22;3349;49.830;8.748;2022-11-20T08:03:59;3.70;99.90
6627;DHT22;3349;49.830;8.748;2022-11-20T08:06:26;3.70;99.90
6627;DHT22;3349;49.830;8.748;2022-11-20T08:08:54;3.70;99.90
6627;DHT22;3349;49.830;8.748;2022-11-20T08:11:21;3.80;99.90
6627;DHT22;3349;49.830;8.748;2022-11-20T08:14:05;3.80;99.90
6627;DHT22;3349;49.830;8.748;2022-11-20T08:16:42;3.80;99.90
6627;DHT22;3349;49.830;8.748;2022-11-20T08:19:09;3.90;99.90
6627;DHT22;3349;49.830;8.748;2022-11-20T08:21:36;3.80;99.90
6627;DHT22;3349;49.830;8.748;2022-11-20T08:24:05;3.90;99.90
6627;DHT22;3349;49.830;8.748;2022-11-20T08:26:32;3.80;99.90
6627;DHT22;3349;49.830;8.748;2022-11-20T08:28:59;3.90;99.90
6627;DHT22;3349;49.830;8.748;2022-11-20T08:31:27;3.90;99.90
6627;DHT22;3349;49.830;8.748;2022-11-20T08:33:54;4.00;99.90
6627;DHT22;3349;49.830;8.748;2022-11-20T08:36:22;4.00;99.90
6627;DHT22;3349;49.830;8.748;2022-11-20T08:38:50;4.00;99.90
6627;DHT22;3349;49.830;8.748;2022-11-20T08:41:18;4.00;99.90
6627;DHT22;3349;49.830;8.748;2022-11-20T08:43:55;4.00;99.90
6627;DHT22;3349;49.830;8.748;2022-11-20T08:46:23;4.00;99.90
6627;DHT22;3349;49.830;8.748;2022-11-20T08:48:50;4.20;99.90
6627;DHT22;3349;49.830;8.748;2022-11-20T08:51:17;4.30;99.90
6627;DHT22;3349;49.830;8.748;2022-11-20T08:53:44;4.40;99.90
6627;DHT22;3349;49.830;8.748;2022-11-20T08:56:11;4.50;99.90
6627;DHT22;3349;49.830;8.748;2022-11-20T08:58:40;4.50;99.90
6627;DHT22;3349;49.830;8.748;2022-11-20T09:01:07;4.50;99.90
6627;DHT22;3349;49.830;8.748;2022-11-20T09:03:34;4.70;99.90
6627;DHT22;3349;49.830;8.748;2022-11-20T09:06:02;4.80;99.90
6627;DHT22;3349;49.830;8.748;2022-11-20T09:08:29;4.80;99.90
6627;DHT22;3349;49.830;8.748;2022-11-20T09:10:56;4.70;99.90
6627;DHT22;3349;49.830;8.748;2022-11-20T09:13:25;4.80;99.90
6627;DHT22;3349;49.830;8.748;2022-11-20T09:15:57;4.80;99.90
6627;DHT22;3349;49.830;8.748;2022-11-20T09:18:25;4.80;99.90
6627;DHT22;3349;49.830;8.748;2022-11-20T09:20:56;4.80;99.90
6627;DHT22;3349;49.830;8.748;2022-11-20T09:23:24;4.80;99.90
6627;DHT22;3349;49.830;8.748;2022-11-20T09:25:50;4.80;99.90
6627;DHT22;3349;49.830;8.748;2022-11-20T09:28:18;4.80;99.90
6627;DHT22;3349;49.830;8.748;2022-11-20T09:30:44;4.80;99.90
6627;DHT22;3349;49.830;8.748;2022-11-20T09:33:13;4.80;99.90
6627;DHT22;3349;49.830;8.748;2022-11-20T09:35:39;4.80;99.90
6627;DHT22;3349;49.830;8.748;2022-11-20T09:38:06;4.80;99.90
6627;DHT22;3349;49.830;8.748;2022-11-20T09:40:35;4.80;99.90
6627;DHT22;3349;49.830;8.748;2022-11-20T09:43:05;4.90;99.90
6627;DHT22;3349;49.830;8.748;2022-11-20T09:45:47;5.00;99.90
6627;DHT22;3349;49.830;8.748;2022-11-20T09:48:33;5.00;99.90
6627;DHT22;3349;49.830;8.748;2022-11-20T09:51:09;5.00;99.90
6627;DHT22;3349;49.830;8.748;2022-11-20T09:53:46;5.10;99.90
6627;DHT22;3349;49.830;8.748;2022-11-20T09:56:19;5.10;99.90
6627;DHT22;3349;49.830;8.748;2022-11-20T09:58:49;5.10;99.90
6627;DHT22;3349;49.830;8.748;2022-11-20T10:01:18;5.10;99.90
6627;DHT22;3349;49.830;8.748;2022-11-20T10:03:53;5.30;99.90
6627;DHT22;3349;49.830;8.748;2022-11-20T10:06:25;5.30;99.90
6627;DHT22;3349;49.830;8.748;2022-11-20T10:09:01;5.20;99.90
6627;DHT22;3349;49.830;8.748;2022-11-20T10:11:40;5.10;99.90
6627;DHT22;3349;49.830;8.748;2022-11-20T10:14:16;5.10;99.90
6627;DHT22;3349;49.830;8.748;2022-11-20T10:16:51;5.10;99.90
6627;DHT22;3349;49.830;8.748;2022-11-20T10:19:32;5.10;99.90
6627;DHT22;3349;49.830;8.748;2022-11-20T10:22:12;5.20;99.90
6627;DHT22;3349;49.830;8.748;2022-11-20T10:24:47;5.30;99.90
6627;DHT22;3349;49.830;8.748;2022-11-20T10:27:40;5.30;99.90
6627;DHT22;3349;49.830;8.748;2022-11-20T10:30:11;5.20;99.90
6627;DHT22;3349;49.830;8.748;2022-11-20T10:32:39;5.20;99.90
6627;DHT22;3349;49.830;8.748;2022-11-20T10:35:17;5.20;99.90
6627;DHT22;3349;49.830;8.748;2022-11-20T10:37:48;5.30;99.90
6627;DHT22;3349;49.830;8.748;2022-11-20T10:40:21;5.30;99.90
6627;DHT22;3349;49.830;8.748;2022-11-20T10:42:52;5.20;99.90
6627;DHT22;3349;49.830;8.748;2022-11-20T10:45:33;5.20;99.90
6627;DHT22;3349;49.830;8.748;2022-11-20T10:48:12;5.10;99.90
6627;DHT22;3349;49.830;8.748;2022-11-20T10:50:55;5.20;99.90
6627;DHT22;3349;49.830;8.748;2022-11-20T10:53:36;5.20;99.90
6627;DHT22;3349;49.830;8.748;2022-11-20T10:56:07;5.10;99.90
6627;DHT22;3349;49.830;8.748;2022-11-20T10:58:42;5.10;99.90
6627;DHT22;3349;49.830;8.748;2022-11-20T11:01:15;5.10;99.90
6627;DHT22;3349;49.830;8.748;2022-11-20T11:03:42;5.10;99.90
6627;DHT22;3349;49.830;8.748;2022-11-20T11:06:19;5.10;99.90
6627;DHT22;3349;49.830;8.748;2022-11-20T11:08:49;5.10;99.90
6627;DHT22;3349;49.830;8.748;2022-11-20T11:11:23;5.10;99.90
6627;DHT22;3349;49.830;8.748;2022-11-20T11:13:51;5.10;99.90
6627;DHT22;3349;49.830;8.748;2022-11-20T11:16:21;5.10;99.90
6627;DHT22;3349;49.830;8.748;2022-11-20T11:18:49;5.00;99.90
6627;DHT22;3349;49.830;8.748;2022-11-20T11:21:23;5.00;99.90
6627;DHT22;3349;49.830;8.748;2022-11-20T11:23:59;5.00;99.90
6627;DHT22;3349;49.830;8.748;2022-11-20T11:26:26;5.00;99.90
6627;DHT22;3349;49.830;8.748;2022-11-20T11:28:55;5.10;99.90
6627;DHT22;3349;49.830;8.748;2022-11-20T11:31:24;5.10;99.90
6627;DHT22;3349;49.830;8.748;2022-11-20T11:33:50;5.10;99.90
6627;DHT22;3349;49.830;8.748;2022-11-20T11:36:20;5.10;99.90
6627;DHT22;3349;49.830;8.748;2022-11-20T11:38:52;5.10;99.90
6627;DHT22;3349;49.830;8.748;2022-11-20T11:41:22;5.20;99.90
6627;DHT22;3349;49.830;8.748;2022-11-20T11:43:52;5.20;99.90
6627;DHT22;3349;49.830;8.748;2022-11-20T11:46:37;5.20;99.90
6627;DHT22;3349;49.830;8.748;2022-11-20T11:49:16;5.20;99.90
6627;DHT22;3349;49.830;8.748;2022-11-20T11:51:53;5.30;99.90
6627;DHT22;3349;49.830;8.748;2022-11-20T11:54:25;5.40;99.90
6627;DHT22;3349;49.830;8.748;2022-11-20T11:56:53;5.40;99.90
6627;DHT22;3349;49.830;8.748;2022-11-20T11:59:27;5.50;99.90
6627;DHT22;3349;49.830;8.748;2022-11-20T12:01:59;5.50;99.90
6627;DHT22;3349;49.830;8.748;2022-11-20T12:04:39;5.50;99.90
6627;DHT22;3349;49.830;8.748;2022-11-20T12:07:12;5.50;99.90
6627;DHT22;3349;49.830;8.748;2022-11-20T12:09:47;5.60;99.90
6627;DHT22;3349;49.830;8.748;2022-11-20T12:12:18;5.70;99.90
6627;DHT22;3349;49.830;8.748;2022-11-20T12:14:47;5.70;99.90
6627;DHT22;3349;49.830;8.748;2022-11-20T12:17:16;5.80;99.90
6627;DHT22;3349;49.830;8.748;2022-11-20T12:19:43;5.80;99.90
6627;DHT22;3349;49.830;8.748;2022-11-20T12:22:19;5.80;99.90
6627;DHT22;3349;49.830;8.748;2022-11-20T12:24:56;5.80;99.90
6627;DHT22;3349;49.830;8.748;2022-11-20T12:27:43;5.80;99.90
6627;DHT22;3349;49.830;8.748;2022-11-20T12:30:15;5.90;99.90
6627;DHT22;3349;49.830;8.748;2022-11-20T12:36:07;5.80;99.90
6627;DHT22;3349;49.830;8.748;2022-11-20T12:38:58;5.70;99.90
6627;DHT22;3349;49.830;8.748;2022-11-20T12:41:53;5.80;99.90
6627;DHT22;3349;49.830;8.748;2022-11-20T12:44:51;5.80;99.90
6627;DHT22;3349;49.830;8.748;2022-11-20T12:47:54;5.80;99.90
6627;DHT22;3349;49.830;8.748;2022-11-20T12:50:27;5.90;99.90
6627;DHT22;3349;49.830;8.748;2022-11-20T12:52:57;6.00;99.90
6627;DHT22;3349;49.830;8.748;2022-11-20T12:55:40;6.00;99.90
6627;DHT22;3349;49.830;8.748;2022-11-20T12:58:13;6.10;99.90
6627;DHT22;3349;49.830;8.748;2022-11-20T13:00:50;6.10;99.90
6627;DHT22;3349;49.830;8.748;2022-11-20T13:03:41;6.20;99.90
6627;DHT22;3349;49.830;8.748;2022-11-20T13:06:13;6.20;99.90
6627;DHT22;3349;49.830;8.748;2022-11-20T13:08:43;6.20;99.90
6627;DHT22;3349;49.830;8.748;2022-11-20T13:11:16;6.30;99.90
6627;DHT22;3349;49.830;8.748;2022-11-20T13:14:00;6.30;99.90
6627;DHT22;3349;49.830;8.748;2022-11-20T13:16:33;6.40;99.90
6627;DHT22;3349;49.830;8.748;2022-11-20T13:19:03;6.40;99.90
6627;DHT22;3349;49.830;8.748;2022-11-20T13:21:38;6.50;99.90
6627;DHT22;3349;49.830;8.748;2022-11-20T13:24:06;6.50;99.90
6627;DHT22;3349;49.830;8.748;2022-11-20T13:26:33;6.60;99.90
6627;DHT22;3349;49.830;8.748;2022-11-20T13:29:09;6.60;99.90
6627;DHT22;3349;49.830;8.748;2022-11-20T13:31:36;6.70;99.90
6627;DHT22;3349;49.830;8.748;2022-11-20T13:34:06;6.70;99.90
6627;DHT22;3349;49.830;8.748;2022-11-20T13:36:33;6.80;99.90
6627;DHT22;3349;49.830;8.748;2022-11-20T13:39:02;6.90;99.90
6627;DHT22;3349;49.830;8.748;2022-11-20T13:41:31;6.90;99.90
6627;DHT22;3349;49.830;8.748;2022-11-20T13:44:10;6.90;99.90
6627;DHT22;3349;49.830;8.748;2022-11-20T13:46:38;6.90;99.90
6627;DHT22;3349;49.830;8.748;2022-11-20T13:49:14;7.00;99.90
6627;DHT22;3349;49.830;8.748;2022-11-20T13:51:44;7.00;99.90
6627;DHT22;3349;49.830;8.748;2022-11-20T13:54:50;7.00;99.90
6627;DHT22;3349;49.830;8.748;2022-11-20T13:57:48;6.90;99.90
6627;DHT22;3349;49.830;8.748;2022-11-20T14:00:21;6.90;99.90
6627;DHT22;3349;49.830;8.748;2022-11-20T14:02:59;6.90;99.90
6627;DHT22;3349;49.830;8.748;2022-11-20T14:05:28;7.00;99.90
6627;DHT22;3349;49.830;8.748;2022-11-20T14:07:57;6.90;99.90
6627;DHT22;3349;49.830;8.748;2022-11-20T14:10:26;7.00;99.90
6627;DHT22;3349;49.830;8.748;2022-11-20T14:12:53;6.90;99.90
6627;DHT22;3349;49.830;8.748;2022-11-20T14:15:27;7.00;99.90
6627;DHT22;3349;49.830;8.748;2022-11-20T14:17:55;7.00;99.90
6627;DHT22;3349;49.830;8.748;2022-11-20T14:20:24;7.00;99.90
6627;DHT22;3349;49.830;8.748;2022-11-20T14:22:53;6.90;99.90
6627;DHT22;3349;49.830;8.748;2022-11-20T14:25:21;6.90;99.90
6627;DHT22;3349;49.830;8.748;2022-11-20T14:27:53;6.90;99.90
6627;DHT22;3349;49.830;8.748;2022-11-20T14:30:22;6.90;99.90
6627;DHT22;3349;49.830;8.748;2022-11-20T14:32:51;6.90;99.90
6627;DHT22;3349;49.830;8.748;2022-11-20T14:35:22;6.90;99.90
6627;DHT22;3349;49.830;8.748;2022-11-20T14:37:50;6.90;99.90
6627;DHT22;3349;49.830;8.748;2022-11-20T14:40:25;6.80;99.90
6627;DHT22;3349;49.830;8.748;2022-11-20T14:42:53;6.80;99.90
6627;DHT22;3349;49.830;8.748;2022-11-20T14:45:21;6.80;99.90
6627;DHT22;3349;49.830;8.748;2022-11-20T14:47:50;6.80;99.90
6627;DHT22;3349;49.830;8.748;2022-11-20T14:50:19;6.80;99.90
6627;DHT22;3349;49.830;8.748;2022-11-20T14:52:51;6.80;99.90
6627;DHT22;3349;49.830;8.748;2022-11-20T14:55:29;6.80;99.90
6627;DHT22;3349;49.830;8.748;2022-11-20T14:58:00;6.80;99.90
6627;DHT22;3349;49.830;8.748;2022-11-20T15:00:28;6.80;99.90
6627;DHT22;3349;49.830;8.748;2022-11-20T15:02:57;6.80;99.90
6627;DHT22;3349;49.830;8.748;2022-11-20T15:05:26;6.80;99.90
6627;DHT22;3349;49.830;8.748;2022-11-20T15:08:15;6.70;99.90
6627;DHT22;3349;49.830;8.748;2022-11-20T15:10:46;6.70;99.90
6627;DHT22;3349;49.830;8.748;2022-11-20T15:13:16;6.70;99.90
6627;DHT22;3349;49.830;8.748;2022-11-20T15:15:46;6.60;99.90
6627;DHT22;3349;49.830;8.748;2022-11-20T15:18:17;6.60;99.90
6627;DHT22;3349;49.830;8.748;2022-11-20T15:20:46;6.50;99.90
6627;DHT22;3349;49.830;8.748;2022-11-20T15:23:14;6.50;99.90
6627;DHT22;3349;49.830;8.748;2022-11-20T15:25:43;6.50;99.90
6627;DHT22;3349;49.830;8.748;2022-11-20T15:28:16;6.40;99.90
6627;DHT22;3349;49.830;8.748;2022-11-20T15:30:45;6.40;99.90
6627;DHT22;3349;49.830;8.748;2022-11-20T15:33:13;6.40;99.90
6627;DHT22;3349;49.830;8.748;2022-11-20T15:35:41;6.40;99.90
6627;DHT22;3349;49.830;8.748;2022-11-20T15:38:08;6.40;99.90
6627;DHT22;3349;49.830;8.748;2022-11-20T15:40:35;6.40;99.90
6627;DHT22;3349;49.830;8.748;2022-11-20T15:43:02;6.40;99.90
6627;DHT22;3349;49.830;8.748;2022-11-20T15:45:33;6.40;99.90
6627;DHT22;3349;49.830;8.748;2022-11-20T15:48:01;6.40;99.90
6627;DHT22;3349;49.830;8.748;2022-11-20T15:50:34;6.50;99.90
6627;DHT22;3349;49.830;8.748;2022-11-20T15:53:03;6.50;99.90
6627;DHT22;3349;49.830;8.748;2022-11-20T15:55:31;6.50;99.90
6627;DHT22;3349;49.830;8.748;2022-11-20T15:57:58;6.50;99.90
6627;DHT22;3349;49.830;8.748;2022-11-20T16:00:24;6.60;99.90
6627;DHT22;3349;49.830;8.748;2022-11-20T16:02:51;6.60;99.90
6627;DHT22;3349;49.830;8.748;2022-11-20T16:05:18;6.60;99.90
6627;DHT22;3349;49.830;8.748;2022-11-20T16:07:45;6.60;99.90
6627;DHT22;3349;49.830;8.748;2022-11-20T16:10:13;6.60;99.90
6627;DHT22;3349;49.830;8.748;2022-11-20T16:12:40;6.60;99.90
6627;DHT22;3349;49.830;8.748;2022-11-20T16:15:24;6.50;99.90
6627;DHT22;3349;49.830;8.748;2022-11-20T16:18:10;6.50;99.90
6627;DHT22;3349;49.830;8.748;2022-11-20T16:20:37;6.50;99.90
6627;DHT22;3349;49.830;8.748;2022-11-20T16:23:04;6.60;99.90
6627;DHT22;3349;49.830;8.748;2022-11-20T16:25:32;6.50;99.90
6627;DHT22;3349;49.830;8.748;2022-11-20T16:27:59;6.50;99.90
6627;DHT22;3349;49.830;8.748;2022-11-20T16:30:26;6.50;99.90
6627;DHT22;3349;49.830;8.748;2022-11-20T16:32:53;6.50;99.90
6627;DHT22;3349;49.830;8.748;2022-11-20T16:35:20;6.50;99.90
6627;DHT22;3349;49.830;8.748;2022-11-20T16:37:46;6.50;99.90